sensor_id;sensor_type;location;lat;lon;timestamp;P1;durP1;ratioP1;P2;durP2;ratioP2
67508;SDS011;54354;44.724;11.284;2023-09-07T00:00:15;9.50;;;5.00;;
67508;SDS011;54354;44.724;11.284;2023-09-07T00:02:40;8.38;;;5.13;;
67508;SDS011;54354;44.724;11.284;2023-09-07T00:05:06;9.88;;;4.85;;
67508;SDS011;54354;44.724;11.284;2023-09-07T00:07:32;9.15;;;4.72;;
67508;SDS011;54354;44.724;11.284;2023-09-07T00:10:00;7.28;;;4.90;;
67508;SDS011;54354;44.724;11.284;2023-09-07T00:12:26;12.95;;;5.80;;
67508;SDS011;54354;44.724;11.284;2023-09-07T00:14:54;6.45;;;5.13;;
67508;SDS011;54354;44.724;11.284;2023-09-07T00:20:02;12.23;;;5.75;;
67508;SDS011;54354;44.724;11.284;2023-09-07T00:22:39;9.27;;;6.38;;
67508;SDS011;54354;44.724;11.284;2023-09-07T00:25:05;11.15;;;6.25;;
67508;SDS011;54354;44.724;11.284;2023-09-07T00:27:32;10.77;;;5.25;;
67508;SDS011;54354;44.724;11.284;2023-09-07T00:29:59;8.35;;;5.40;;
67508;SDS011;54354;44.724;11.284;2023-09-07T00:32:24;13.07;;;5.88;;
67508;SDS011;54354;44.724;11.284;2023-09-07T00:34:50;12.32;;;5.75;;
67508;SDS011;54354;44.724;11.284;2023-09-07T00:37:15;13.10;;;5.57;;
67508;SDS011;54354;44.724;11.284;2023-09-07T00:39:41;14.63;;;6.97;;
67508;SDS011;54354;44.724;11.284;2023-09-07T00:42:06;8.48;;;6.30;;
67508;SDS011;54354;44.724;11.284;2023-09-07T00:44:32;6.95;;;5.30;;
67508;SDS011;54354;44.724;11.284;2023-09-07T00:46:57;8.32;;;5.60;;
67508;SDS011;54354;44.724;11.284;2023-09-07T00:49:24;9.65;;;5.13;;
67508;SDS011;54354;44.724;11.284;2023-09-07T00:51:50;13.32;;;5.88;;
67508;SDS011;54354;44.724;11.284;2023-09-07T00:54:17;9.50;;;5.22;;
67508;SDS011;54354;44.724;11.284;2023-09-07T00:56:43;12.45;;;5.55;;
67508;SDS011;54354;44.724;11.284;2023-09-07T00:59:09;11.77;;;5.88;;
67508;SDS011;54354;44.724;11.284;2023-09-07T01:01:36;11.35;;;6.40;;
67508;SDS011;54354;44.724;11.284;2023-09-07T01:04:02;14.38;;;5.88;;
67508;SDS011;54354;44.724;11.284;2023-09-07T01:06:29;11.18;;;5.80;;
67508;SDS011;54354;44.724;11.284;2023-09-07T01:08:59;11.07;;;5.80;;
67508;SDS011;54354;44.724;11.284;2023-09-07T01:11:35;10.82;;;5.57;;
67508;SDS011;54354;44.724;11.284;2023-09-07T01:14:01;8.95;;;5.80;;
67508;SDS011;54354;44.724;11.284;2023-09-07T01:16:29;9.98;;;6.38;;
67508;SDS011;54354;44.724;11.284;2023-09-07T01:18:55;8.93;;;5.97;;
67508;SDS011;54354;44.724;11.284;2023-09-07T01:21:22;12.80;;;6.65;;
67508;SDS011;54354;44.724;11.284;2023-09-07T01:23:48;15.38;;;5.97;;
67508;SDS011;54354;44.724;11.284;2023-09-07T01:26:15;11.10;;;5.65;;
67508;SDS011;54354;44.724;11.284;2023-09-07T01:28:40;7.55;;;5.75;;
67508;SDS011;54354;44.724;11.284;2023-09-07T01:31:07;9.05;;;6.13;;
67508;SDS011;54354;44.724;11.284;2023-09-07T01:33:32;14.50;;;6.70;;
67508;SDS011;54354;44.724;11.284;2023-09-07T01:35:58;8.07;;;6.07;;
67508;SDS011;54354;44.724;11.284;2023-09-07T01:38:24;13.27;;;6.45;;
67508;SDS011;54354;44.724;11.284;2023-09-07T01:40:49;6.10;;;5.50;;
67508;SDS011;54354;44.724;11.284;2023-09-07T01:43:15;10.40;;;5.90;;
67508;SDS011;54354;44.724;11.284;2023-09-07T01:45:40;7.47;;;6.60;;
67508;SDS011;54354;44.724;11.284;2023-09-07T01:48:08;8.63;;;6.93;;
67508;SDS011;54354;44.724;11.284;2023-09-07T01:50:37;12.02;;;6.30;;
67508;SDS011;54354;44.724;11.284;2023-09-07T01:53:02;9.75;;;6.00;;
67508;SDS011;54354;44.724;11.284;2023-09-07T01:55:30;8.77;;;6.35;;
67508;SDS011;54354;44.724;11.284;2023-09-07T01:57:58;11.23;;;7.22;;
67508;SDS011;54354;44.724;11.284;2023-09-07T02:00:24;10.15;;;7.00;;
67508;SDS011;54354;44.724;11.284;2023-09-07T02:02:50;13.93;;;7.35;;
67508;SDS011;54354;44.724;11.284;2023-09-07T02:05:16;11.63;;;7.50;;
67508;SDS011;54354;44.724;11.284;2023-09-07T02:07:42;12.02;;;7.85;;
67508;SDS011;54354;44.724;11.284;2023-09-07T02:10:08;12.20;;;7.80;;
67508;SDS011;54354;44.724;11.284;2023-09-07T02:12:34;17.92;;;8.45;;
67508;SDS011;54354;44.724;11.284;2023-09-07T02:15:01;15.82;;;8.13;;
67508;SDS011;54354;44.724;11.284;2023-09-07T02:17:28;14.45;;;8.93;;
67508;SDS011;54354;44.724;11.284;2023-09-07T02:19:55;12.00;;;8.85;;
67508;SDS011;54354;44.724;11.284;2023-09-07T02:22:21;11.45;;;8.75;;
67508;SDS011;54354;44.724;11.284;2023-09-07T02:24:46;14.30;;;9.30;;
67508;SDS011;54354;44.724;11.284;2023-09-07T02:27:12;9.73;;;8.70;;
67508;SDS011;54354;44.724;11.284;2023-09-07T02:29:37;12.93;;;9.60;;
67508;SDS011;54354;44.724;11.284;2023-09-07T02:32:03;11.73;;;10.07;;
67508;SDS011;54354;44.724;11.284;2023-09-07T02:34:29;14.20;;;10.07;;
67508;SDS011;54354;44.724;11.284;2023-09-07T02:36:55;15.05;;;10.82;;
67508;SDS011;54354;44.724;11.284;2023-09-07T02:39:22;13.88;;;10.75;;
67508;SDS011;54354;44.724;11.284;2023-09-07T02:41:52;15.30;;;10.52;;
67508;SDS011;54354;44.724;11.284;2023-09-07T02:44:17;14.20;;;10.82;;
67508;SDS011;54354;44.724;11.284;2023-09-07T02:46:43;13.27;;;10.80;;
67508;SDS011;54354;44.724;11.284;2023-09-07T02:49:09;12.07;;;10.80;;
67508;SDS011;54354;44.724;11.284;2023-09-07T02:51:35;15.15;;;11.10;;
67508;SDS011;54354;44.724;11.284;2023-09-07T02:54:01;16.45;;;11.52;;
67508;SDS011;54354;44.724;11.284;2023-09-07T02:56:29;13.10;;;11.20;;
67508;SDS011;54354;44.724;11.284;2023-09-07T02:58:55;17.58;;;10.77;;
67508;SDS011;54354;44.724;11.284;2023-09-07T03:01:22;15.95;;;11.20;;
67508;SDS011;54354;44.724;11.284;2023-09-07T03:03:48;18.38;;;11.82;;
67508;SDS011;54354;44.724;11.284;2023-09-07T03:06:15;14.23;;;11.77;;
67508;SDS011;54354;44.724;11.284;2023-09-07T03:08:46;14.73;;;11.93;;
67508;SDS011;54354;44.724;11.284;2023-09-07T03:11:12;14.15;;;11.20;;
67508;SDS011;54354;44.724;11.284;2023-09-07T03:13:39;17.40;;;11.70;;
67508;SDS011;54354;44.724;11.284;2023-09-07T03:16:04;15.35;;;11.55;;
67508;SDS011;54354;44.724;11.284;2023-09-07T03:18:30;14.75;;;11.25;;
67508;SDS011;54354;44.724;11.284;2023-09-07T03:20:58;15.32;;;11.88;;
67508;SDS011;54354;44.724;11.284;2023-09-07T03:23:25;14.90;;;12.13;;
67508;SDS011;54354;44.724;11.284;2023-09-07T03:25:50;19.02;;;12.63;;
67508;SDS011;54354;44.724;11.284;2023-09-07T03:28:16;14.07;;;12.20;;
67508;SDS011;54354;44.724;11.284;2023-09-07T03:30:44;18.23;;;12.55;;
67508;SDS011;54354;44.724;11.284;2023-09-07T03:33:09;16.40;;;11.68;;
67508;SDS011;54354;44.724;11.284;2023-09-07T03:35:35;14.52;;;12.13;;
67508;SDS011;54354;44.724;11.284;2023-09-07T03:38:01;20.90;;;12.30;;
67508;SDS011;54354;44.724;11.284;2023-09-07T03:40:26;18.10;;;12.40;;
67508;SDS011;54354;44.724;11.284;2023-09-07T03:42:52;17.55;;;12.50;;
67508;SDS011;54354;44.724;11.284;2023-09-07T03:45:18;13.65;;;12.32;;
67508;SDS011;54354;44.724;11.284;2023-09-07T03:47:43;15.75;;;12.75;;
67508;SDS011;54354;44.724;11.284;2023-09-07T03:50:11;17.55;;;13.25;;
67508;SDS011;54354;44.724;11.284;2023-09-07T03:52:37;15.65;;;13.20;;
67508;SDS011;54354;44.724;11.284;2023-09-07T03:55:04;14.20;;;12.77;;
67508;SDS011;54354;44.724;11.284;2023-09-07T03:57:29;15.52;;;12.68;;
67508;SDS011;54354;44.724;11.284;2023-09-07T03:59:56;15.30;;;13.30;;
67508;SDS011;54354;44.724;11.284;2023-09-07T04:02:22;14.85;;;13.18;;
67508;SDS011;54354;44.724;11.284;2023-09-07T04:04:49;15.90;;;13.13;;
67508;SDS011;54354;44.724;11.284;2023-09-07T04:07:15;17.45;;;13.52;;
67508;SDS011;54354;44.724;11.284;2023-09-07T04:09:41;18.52;;;12.73;;
67508;SDS011;54354;44.724;11.284;2023-09-07T04:12:08;21.48;;;16.27;;
67508;SDS011;54354;44.724;11.284;2023-09-07T04:14:34;19.30;;;14.23;;
67508;SDS011;54354;44.724;11.284;2023-09-07T04:17:00;17.02;;;13.38;;
67508;SDS011;54354;44.724;11.284;2023-09-07T04:19:26;14.80;;;13.13;;
67508;SDS011;54354;44.724;11.284;2023-09-07T04:21:51;17.48;;;13.25;;
67508;SDS011;54354;44.724;11.284;2023-09-07T04:24:17;18.13;;;13.95;;
67508;SDS011;54354;44.724;11.284;2023-09-07T04:26:43;18.52;;;14.07;;
67508;SDS011;54354;44.724;11.284;2023-09-07T04:29:08;17.85;;;14.10;;
67508;SDS011;54354;44.724;11.284;2023-09-07T04:31:34;21.35;;;14.10;;
67508;SDS011;54354;44.724;11.284;2023-09-07T04:34:00;16.23;;;13.73;;
67508;SDS011;54354;44.724;11.284;2023-09-07T04:36:26;17.35;;;14.02;;
67508;SDS011;54354;44.724;11.284;2023-09-07T04:38:52;15.85;;;14.05;;
67508;SDS011;54354;44.724;11.284;2023-09-07T04:41:17;16.50;;;14.32;;
67508;SDS011;54354;44.724;11.284;2023-09-07T04:43:44;15.52;;;13.70;;
67508;SDS011;54354;44.724;11.284;2023-09-07T04:46:10;17.00;;;15.20;;
67508;SDS011;54354;44.724;11.284;2023-09-07T04:48:39;18.27;;;15.10;;
67508;SDS011;54354;44.724;11.284;2023-09-07T04:51:07;21.42;;;15.20;;
67508;SDS011;54354;44.724;11.284;2023-09-07T04:53:35;18.38;;;14.60;;
67508;SDS011;54354;44.724;11.284;2023-09-07T04:56:04;19.65;;;14.38;;
67508;SDS011;54354;44.724;11.284;2023-09-07T04:58:31;18.35;;;14.68;;
67508;SDS011;54354;44.724;11.284;2023-09-07T05:01:03;19.70;;;14.35;;
67508;SDS011;54354;44.724;11.284;2023-09-07T05:03:30;19.48;;;14.65;;
67508;SDS011;54354;44.724;11.284;2023-09-07T05:05:55;16.55;;;13.95;;
67508;SDS011;54354;44.724;11.284;2023-09-07T05:08:22;15.20;;;13.70;;
67508;SDS011;54354;44.724;11.284;2023-09-07T05:10:54;18.88;;;14.40;;
67508;SDS011;54354;44.724;11.284;2023-09-07T05:13:29;23.02;;;14.32;;
67508;SDS011;54354;44.724;11.284;2023-09-07T05:15:58;19.17;;;14.75;;
67508;SDS011;54354;44.724;11.284;2023-09-07T05:18:25;19.33;;;14.23;;
67508;SDS011;54354;44.724;11.284;2023-09-07T05:20:51;17.67;;;14.75;;
67508;SDS011;54354;44.724;11.284;2023-09-07T05:23:17;19.08;;;15.43;;
67508;SDS011;54354;44.724;11.284;2023-09-07T05:25:45;16.40;;;14.70;;
67508;SDS011;54354;44.724;11.284;2023-09-07T05:28:13;16.63;;;14.80;;
67508;SDS011;54354;44.724;11.284;2023-09-07T05:30:40;18.05;;;14.52;;
67508;SDS011;54354;44.724;11.284;2023-09-07T05:33:09;24.13;;;16.25;;
67508;SDS011;54354;44.724;11.284;2023-09-07T05:35:35;19.52;;;14.90;;
67508;SDS011;54354;44.724;11.284;2023-09-07T05:38:01;18.45;;;15.57;;
67508;SDS011;54354;44.724;11.284;2023-09-07T05:40:28;22.13;;;15.50;;
67508;SDS011;54354;44.724;11.284;2023-09-07T05:42:54;24.10;;;15.90;;
67508;SDS011;54354;44.724;11.284;2023-09-07T05:45:20;21.60;;;16.00;;
67508;SDS011;54354;44.724;11.284;2023-09-07T05:47:45;17.83;;;15.90;;
67508;SDS011;54354;44.724;11.284;2023-09-07T05:50:11;20.25;;;15.95;;
67508;SDS011;54354;44.724;11.284;2023-09-07T05:52:37;20.10;;;15.63;;
67508;SDS011;54354;44.724;11.284;2023-09-07T05:55:03;19.25;;;15.25;;
67508;SDS011;54354;44.724;11.284;2023-09-07T05:57:29;22.10;;;15.93;;
67508;SDS011;54354;44.724;11.284;2023-09-07T05:59:55;23.20;;;16.23;;
67508;SDS011;54354;44.724;11.284;2023-09-07T06:02:21;18.80;;;14.63;;
67508;SDS011;54354;44.724;11.284;2023-09-07T06:04:46;21.30;;;15.13;;
67508;SDS011;54354;44.724;11.284;2023-09-07T06:07:12;22.05;;;16.45;;
67508;SDS011;54354;44.724;11.284;2023-09-07T06:09:38;19.73;;;16.60;;
67508;SDS011;54354;44.724;11.284;2023-09-07T06:12:03;22.75;;;15.90;;
67508;SDS011;54354;44.724;11.284;2023-09-07T06:14:29;20.23;;;15.75;;
67508;SDS011;54354;44.724;11.284;2023-09-07T06:16:55;21.73;;;14.93;;
67508;SDS011;54354;44.724;11.284;2023-09-07T06:19:21;17.33;;;15.40;;
67508;SDS011;54354;44.724;11.284;2023-09-07T06:21:47;21.65;;;15.45;;
67508;SDS011;54354;44.724;11.284;2023-09-07T06:24:12;22.50;;;14.85;;
67508;SDS011;54354;44.724;11.284;2023-09-07T06:26:38;21.75;;;14.50;;
67508;SDS011;54354;44.724;11.284;2023-09-07T06:29:04;21.15;;;14.23;;
67508;SDS011;54354;44.724;11.284;2023-09-07T06:31:30;15.80;;;14.20;;
67508;SDS011;54354;44.724;11.284;2023-09-07T06:33:55;20.70;;;13.82;;
67508;SDS011;54354;44.724;11.284;2023-09-07T06:36:21;19.58;;;13.77;;
67508;SDS011;54354;44.724;11.284;2023-09-07T06:38:47;21.77;;;13.93;;
67508;SDS011;54354;44.724;11.284;2023-09-07T06:41:12;16.70;;;13.30;;
67508;SDS011;54354;44.724;11.284;2023-09-07T06:43:38;18.58;;;13.27;;
67508;SDS011;54354;44.724;11.284;2023-09-07T06:46:06;17.08;;;12.23;;
67508;SDS011;54354;44.724;11.284;2023-09-07T06:48:34;16.50;;;12.05;;
67508;SDS011;54354;44.724;11.284;2023-09-07T06:51:01;14.52;;;11.40;;
67508;SDS011;54354;44.724;11.284;2023-09-07T06:53:29;21.75;;;11.95;;
67508;SDS011;54354;44.724;11.284;2023-09-07T06:55:58;15.68;;;11.20;;
67508;SDS011;54354;44.724;11.284;2023-09-07T06:58:29;17.75;;;11.57;;
67508;SDS011;54354;44.724;11.284;2023-09-07T07:00:58;13.32;;;10.63;;
67508;SDS011;54354;44.724;11.284;2023-09-07T07:03:25;17.98;;;10.75;;
67508;SDS011;54354;44.724;11.284;2023-09-07T07:05:52;16.63;;;11.30;;
67508;SDS011;54354;44.724;11.284;2023-09-07T07:08:18;16.88;;;10.50;;
67508;SDS011;54354;44.724;11.284;2023-09-07T07:10:43;12.20;;;10.30;;
67508;SDS011;54354;44.724;11.284;2023-09-07T07:13:09;13.40;;;10.15;;
67508;SDS011;54354;44.724;11.284;2023-09-07T07:15:34;11.13;;;9.13;;
67508;SDS011;54354;44.724;11.284;2023-09-07T07:18:01;12.55;;;9.48;;
67508;SDS011;54354;44.724;11.284;2023-09-07T07:20:31;16.90;;;9.43;;
67508;SDS011;54354;44.724;11.284;2023-09-07T07:22:56;14.60;;;8.98;;
67508;SDS011;54354;44.724;11.284;2023-09-07T07:25:22;13.73;;;8.32;;
67508;SDS011;54354;44.724;11.284;2023-09-07T07:27:47;12.55;;;8.10;;
67508;SDS011;54354;44.724;11.284;2023-09-07T07:30:13;13.25;;;7.80;;
67508;SDS011;54354;44.724;11.284;2023-09-07T07:32:40;10.50;;;7.65;;
67508;SDS011;54354;44.724;11.284;2023-09-07T07:35:05;8.18;;;7.38;;
67508;SDS011;54354;44.724;11.284;2023-09-07T07:37:32;11.25;;;6.10;;
67508;SDS011;54354;44.724;11.284;2023-09-07T07:39:57;7.55;;;6.10;;
67508;SDS011;54354;44.724;11.284;2023-09-07T07:42:23;11.05;;;5.72;;
67508;SDS011;54354;44.724;11.284;2023-09-07T07:44:50;8.35;;;5.47;;
67508;SDS011;54354;44.724;11.284;2023-09-07T07:47:15;9.18;;;5.50;;
67508;SDS011;54354;44.724;11.284;2023-09-07T07:49:41;5.95;;;4.15;;
67508;SDS011;54354;44.724;11.284;2023-09-07T07:52:07;7.95;;;5.00;;
67508;SDS011;54354;44.724;11.284;2023-09-07T07:54:35;8.10;;;4.93;;
67508;SDS011;54354;44.724;11.284;2023-09-07T07:57:02;6.55;;;4.07;;
67508;SDS011;54354;44.724;11.284;2023-09-07T07:59:30;10.23;;;4.78;;
67508;SDS011;54354;44.724;11.284;2023-09-07T08:01:55;3.88;;;3.35;;
67508;SDS011;54354;44.724;11.284;2023-09-07T08:04:21;5.72;;;4.78;;
67508;SDS011;54354;44.724;11.284;2023-09-07T08:06:46;9.48;;;4.30;;
67508;SDS011;54354;44.724;11.284;2023-09-07T08:09:12;3.67;;;3.38;;
67508;SDS011;54354;44.724;11.284;2023-09-07T08:11:39;6.47;;;4.07;;
67508;SDS011;54354;44.724;11.284;2023-09-07T08:14:05;4.60;;;3.15;;
67508;SDS011;54354;44.724;11.284;2023-09-07T08:16:30;7.78;;;4.15;;
67508;SDS011;54354;44.724;11.284;2023-09-07T08:18:57;5.72;;;3.78;;
67508;SDS011;54354;44.724;11.284;2023-09-07T08:21:22;9.35;;;4.00;;
67508;SDS011;54354;44.724;11.284;2023-09-07T08:23:48;4.90;;;3.08;;
67508;SDS011;54354;44.724;11.284;2023-09-07T08:26:15;6.88;;;3.72;;
67508;SDS011;54354;44.724;11.284;2023-09-07T08:28:42;11.20;;;4.28;;
67508;SDS011;54354;44.724;11.284;2023-09-07T08:31:14;9.80;;;3.80;;
67508;SDS011;54354;44.724;11.284;2023-09-07T08:33:46;3.60;;;2.45;;
67508;SDS011;54354;44.724;11.284;2023-09-07T08:36:15;10.02;;;3.03;;
67508;SDS011;54354;44.724;11.284;2023-09-07T08:38:42;6.15;;;2.47;;
67508;SDS011;54354;44.724;11.284;2023-09-07T08:41:08;5.40;;;2.60;;
67508;SDS011;54354;44.724;11.284;2023-09-07T08:43:35;5.22;;;3.00;;
67508;SDS011;54354;44.724;11.284;2023-09-07T08:46:14;8.02;;;2.63;;
67508;SDS011;54354;44.724;11.284;2023-09-07T08:48:45;6.53;;;3.63;;
67508;SDS011;54354;44.724;11.284;2023-09-07T08:51:12;9.15;;;2.78;;
67508;SDS011;54354;44.724;11.284;2023-09-07T08:53:40;7.80;;;3.95;;
67508;SDS011;54354;44.724;11.284;2023-09-07T08:56:06;4.50;;;2.90;;
67508;SDS011;54354;44.724;11.284;2023-09-07T08:58:36;4.70;;;3.00;;
67508;SDS011;54354;44.724;11.284;2023-09-07T09:01:01;9.50;;;3.53;;
67508;SDS011;54354;44.724;11.284;2023-09-07T09:03:27;11.23;;;3.63;;
67508;SDS011;54354;44.724;11.284;2023-09-07T09:05:54;7.07;;;3.22;;
67508;SDS011;54354;44.724;11.284;2023-09-07T09:08:21;6.82;;;3.00;;
67508;SDS011;54354;44.724;11.284;2023-09-07T09:10:59;51.83;;;4.20;;
67508;SDS011;54354;44.724;11.284;2023-09-07T09:13:32;4.93;;;2.95;;
67508;SDS011;54354;44.724;11.284;2023-09-07T09:16:00;8.05;;;3.10;;
67508;SDS011;54354;44.724;11.284;2023-09-07T09:18:26;4.68;;;3.13;;
67508;SDS011;54354;44.724;11.284;2023-09-07T09:20:56;5.93;;;3.00;;
67508;SDS011;54354;44.724;11.284;2023-09-07T09:23:24;15.75;;;10.98;;
67508;SDS011;54354;44.724;11.284;2023-09-07T09:25:56;32.20;;;23.05;;
67508;SDS011;54354;44.724;11.284;2023-09-07T09:28:21;12.77;;;6.65;;
67508;SDS011;54354;44.724;11.284;2023-09-07T09:30:47;6.53;;;3.67;;
67508;SDS011;54354;44.724;11.284;2023-09-07T09:33:14;9.40;;;5.75;;
67508;SDS011;54354;44.724;11.284;2023-09-07T09:35:42;5.90;;;3.90;;
67508;SDS011;54354;44.724;11.284;2023-09-07T09:38:08;11.55;;;5.88;;
67508;SDS011;54354;44.724;11.284;2023-09-07T09:40:35;8.73;;;6.88;;
67508;SDS011;54354;44.724;11.284;2023-09-07T09:43:04;6.28;;;3.55;;
67508;SDS011;54354;44.724;11.284;2023-09-07T09:47:56;9.98;;;7.10;;
67508;SDS011;54354;44.724;11.284;2023-09-07T09:50:25;10.35;;;5.70;;
67508;SDS011;54354;44.724;11.284;2023-09-07T09:52:52;5.90;;;2.95;;
67508;SDS011;54354;44.724;11.284;2023-09-07T09:55:18;4.70;;;3.03;;
67508;SDS011;54354;44.724;11.284;2023-09-07T09:57:45;8.88;;;5.35;;
67508;SDS011;54354;44.724;11.284;2023-09-07T10:00:12;4.75;;;2.53;;
67508;SDS011;54354;44.724;11.284;2023-09-07T10:02:54;8.38;;;5.13;;
67508;SDS011;54354;44.724;11.284;2023-09-07T10:05:26;4.55;;;3.70;;
67508;SDS011;54354;44.724;11.284;2023-09-07T10:07:52;5.75;;;2.80;;
67508;SDS011;54354;44.724;11.284;2023-09-07T10:10:18;101.07;;;8.45;;
67508;SDS011;54354;44.724;11.284;2023-09-07T10:12:45;125.40;;;9.90;;
67508;SDS011;54354;44.724;11.284;2023-09-07T10:15:24;11.32;;;3.25;;
67508;SDS011;54354;44.724;11.284;2023-09-07T10:17:51;46.60;;;7.15;;
67508;SDS011;54354;44.724;11.284;2023-09-07T10:20:53;20.17;;;5.07;;
67508;SDS011;54354;44.724;11.284;2023-09-07T10:23:21;19.70;;;3.97;;
67508;SDS011;54354;44.724;11.284;2023-09-07T10:25:52;8.55;;;2.85;;
67508;SDS011;54354;44.724;11.284;2023-09-07T10:28:22;7.60;;;2.80;;
67508;SDS011;54354;44.724;11.284;2023-09-07T10:33:34;20.90;;;5.20;;
67508;SDS011;54354;44.724;11.284;2023-09-07T10:36:04;5.10;;;2.72;;
67508;SDS011;54354;44.724;11.284;2023-09-07T10:38:36;8.63;;;4.00;;
67508;SDS011;54354;44.724;11.284;2023-09-07T10:41:04;5.97;;;2.63;;
67508;SDS011;54354;44.724;11.284;2023-09-07T10:43:30;4.47;;;2.80;;
67508;SDS011;54354;44.724;11.284;2023-09-07T10:45:57;7.93;;;4.20;;
67508;SDS011;54354;44.724;11.284;2023-09-07T10:48:25;6.53;;;4.00;;
67508;SDS011;54354;44.724;11.284;2023-09-07T10:50:53;6.10;;;3.75;;
67508;SDS011;54354;44.724;11.284;2023-09-07T10:53:29;6.00;;;3.83;;
67508;SDS011;54354;44.724;11.284;2023-09-07T10:55:58;11.00;;;2.72;;
67508;SDS011;54354;44.724;11.284;2023-09-07T10:58:28;7.85;;;4.10;;
67508;SDS011;54354;44.724;11.284;2023-09-07T11:00:55;6.60;;;2.78;;
67508;SDS011;54354;44.724;11.284;2023-09-07T11:03:22;6.82;;;3.65;;
67508;SDS011;54354;44.724;11.284;2023-09-07T11:05:47;6.30;;;3.38;;
67508;SDS011;54354;44.724;11.284;2023-09-07T11:08:14;6.10;;;3.97;;
67508;SDS011;54354;44.724;11.284;2023-09-07T11:10:40;5.53;;;4.03;;
67508;SDS011;54354;44.724;11.284;2023-09-07T11:13:05;6.13;;;3.60;;
67508;SDS011;54354;44.724;11.284;2023-09-07T11:15:32;3.13;;;2.78;;
67508;SDS011;54354;44.724;11.284;2023-09-07T11:18:05;8.85;;;3.72;;
67508;SDS011;54354;44.724;11.284;2023-09-07T11:20:35;4.35;;;3.10;;
67508;SDS011;54354;44.724;11.284;2023-09-07T11:23:02;4.05;;;3.45;;
67508;SDS011;54354;44.724;11.284;2023-09-07T11:25:36;7.57;;;5.53;;
67508;SDS011;54354;44.724;11.284;2023-09-07T11:28:03;8.00;;;2.78;;
67508;SDS011;54354;44.724;11.284;2023-09-07T11:30:32;4.88;;;2.83;;
67508;SDS011;54354;44.724;11.284;2023-09-07T11:33:05;5.78;;;2.80;;
67508;SDS011;54354;44.724;11.284;2023-09-07T11:35:35;5.22;;;2.90;;
67508;SDS011;54354;44.724;11.284;2023-09-07T11:38:02;9.80;;;3.30;;
67508;SDS011;54354;44.724;11.284;2023-09-07T11:40:30;4.28;;;3.88;;
67508;SDS011;54354;44.724;11.284;2023-09-07T11:42:56;6.22;;;3.30;;
67508;SDS011;54354;44.724;11.284;2023-09-07T11:45:22;4.35;;;3.95;;
67508;SDS011;54354;44.724;11.284;2023-09-07T11:47:47;5.38;;;2.63;;
67508;SDS011;54354;44.724;11.284;2023-09-07T11:50:13;4.03;;;3.70;;
67508;SDS011;54354;44.724;11.284;2023-09-07T11:52:42;9.67;;;2.37;;
67508;SDS011;54354;44.724;11.284;2023-09-07T11:55:08;5.13;;;3.00;;
67508;SDS011;54354;44.724;11.284;2023-09-07T11:57:36;3.08;;;2.65;;
67508;SDS011;54354;44.724;11.284;2023-09-07T12:00:02;3.83;;;2.97;;
67508;SDS011;54354;44.724;11.284;2023-09-07T12:02:39;4.30;;;2.90;;
67508;SDS011;54354;44.724;11.284;2023-09-07T12:05:05;3.75;;;2.80;;
67508;SDS011;54354;44.724;11.284;2023-09-07T12:07:33;4.72;;;3.53;;
67508;SDS011;54354;44.724;11.284;2023-09-07T12:09:59;4.82;;;3.10;;
67508;SDS011;54354;44.724;11.284;2023-09-07T12:12:25;6.63;;;2.60;;
67508;SDS011;54354;44.724;11.284;2023-09-07T12:14:51;5.15;;;3.03;;
67508;SDS011;54354;44.724;11.284;2023-09-07T12:17:16;6.60;;;2.50;;
67508;SDS011;54354;44.724;11.284;2023-09-07T12:19:42;8.27;;;2.45;;
67508;SDS011;54354;44.724;11.284;2023-09-07T12:22:11;8.00;;;2.30;;
67508;SDS011;54354;44.724;11.284;2023-09-07T12:24:37;12.23;;;2.70;;
67508;SDS011;54354;44.724;11.284;2023-09-07T12:27:03;4.28;;;2.33;;
67508;SDS011;54354;44.724;11.284;2023-09-07T12:29:29;3.92;;;2.33;;
67508;SDS011;54354;44.724;11.284;2023-09-07T12:31:55;5.05;;;2.60;;
67508;SDS011;54354;44.724;11.284;2023-09-07T12:34:20;6.70;;;2.40;;
67508;SDS011;54354;44.724;11.284;2023-09-07T12:36:46;10.10;;;2.38;;
67508;SDS011;54354;44.724;11.284;2023-09-07T12:39:12;9.02;;;2.30;;
67508;SDS011;54354;44.724;11.284;2023-09-07T12:41:38;4.22;;;2.10;;
67508;SDS011;54354;44.724;11.284;2023-09-07T12:44:04;6.05;;;2.70;;
67508;SDS011;54354;44.724;11.284;2023-09-07T12:46:30;8.85;;;3.00;;
67508;SDS011;54354;44.724;11.284;2023-09-07T12:48:57;4.25;;;2.47;;
67508;SDS011;54354;44.724;11.284;2023-09-07T12:51:23;7.50;;;2.45;;
67508;SDS011;54354;44.724;11.284;2023-09-07T12:53:49;6.43;;;2.08;;
67508;SDS011;54354;44.724;11.284;2023-09-07T12:56:15;4.10;;;2.10;;
67508;SDS011;54354;44.724;11.284;2023-09-07T12:58:41;5.22;;;2.30;;
67508;SDS011;54354;44.724;11.284;2023-09-07T13:01:08;6.03;;;2.60;;
67508;SDS011;54354;44.724;11.284;2023-09-07T13:03:38;5.38;;;2.22;;
67508;SDS011;54354;44.724;11.284;2023-09-07T13:06:04;5.72;;;2.22;;
67508;SDS011;54354;44.724;11.284;2023-09-07T13:08:29;4.60;;;2.35;;
67508;SDS011;54354;44.724;11.284;2023-09-07T13:10:55;5.55;;;2.10;;
67508;SDS011;54354;44.724;11.284;2023-09-07T13:13:24;5.40;;;2.13;;
67508;SDS011;54354;44.724;11.284;2023-09-07T13:15:56;8.35;;;2.28;;
67508;SDS011;54354;44.724;11.284;2023-09-07T13:18:22;4.68;;;2.10;;
67508;SDS011;54354;44.724;11.284;2023-09-07T13:20:48;8.63;;;2.10;;
67508;SDS011;54354;44.724;11.284;2023-09-07T13:23:15;7.45;;;2.10;;
67508;SDS011;54354;44.724;11.284;2023-09-07T13:25:41;6.07;;;1.90;;
67508;SDS011;54354;44.724;11.284;2023-09-07T13:28:06;8.73;;;2.10;;
67508;SDS011;54354;44.724;11.284;2023-09-07T13:30:32;3.15;;;2.15;;
67508;SDS011;54354;44.724;11.284;2023-09-07T13:32:57;5.07;;;2.15;;
67508;SDS011;54354;44.724;11.284;2023-09-07T13:35:24;4.95;;;2.30;;
67508;SDS011;54354;44.724;11.284;2023-09-07T13:37:50;6.65;;;2.67;;
67508;SDS011;54354;44.724;11.284;2023-09-07T13:40:15;6.65;;;2.30;;
67508;SDS011;54354;44.724;11.284;2023-09-07T13:42:41;3.38;;;1.98;;
67508;SDS011;54354;44.724;11.284;2023-09-07T13:45:08;2.60;;;2.40;;
67508;SDS011;54354;44.724;11.284;2023-09-07T13:47:34;16.75;;;2.40;;
67508;SDS011;54354;44.724;11.284;2023-09-07T13:50:00;59.92;;;4.35;;
67508;SDS011;54354;44.724;11.284;2023-09-07T13:52:26;27.73;;;3.13;;
67508;SDS011;54354;44.724;11.284;2023-09-07T13:54:51;7.93;;;2.40;;
67508;SDS011;54354;44.724;11.284;2023-09-07T13:57:17;4.35;;;2.30;;
67508;SDS011;54354;44.724;11.284;2023-09-07T13:59:42;5.35;;;2.10;;
67508;SDS011;54354;44.724;11.284;2023-09-07T14:02:08;3.75;;;2.30;;
67508;SDS011;54354;44.724;11.284;2023-09-07T14:04:33;3.47;;;2.00;;
67508;SDS011;54354;44.724;11.284;2023-09-07T14:06:59;7.90;;;2.10;;
67508;SDS011;54354;44.724;11.284;2023-09-07T14:09:25;6.20;;;1.98;;
67508;SDS011;54354;44.724;11.284;2023-09-07T14:11:50;6.43;;;2.35;;
67508;SDS011;54354;44.724;11.284;2023-09-07T14:14:16;3.00;;;2.40;;
67508;SDS011;54354;44.724;11.284;2023-09-07T14:16:42;5.00;;;2.40;;
67508;SDS011;54354;44.724;11.284;2023-09-07T14:19:08;3.53;;;2.20;;
67508;SDS011;54354;44.724;11.284;2023-09-07T14:21:33;3.08;;;2.05;;
67508;SDS011;54354;44.724;11.284;2023-09-07T14:23:59;2.92;;;2.35;;
67508;SDS011;54354;44.724;11.284;2023-09-07T14:26:26;7.15;;;2.35;;
67508;SDS011;54354;44.724;11.284;2023-09-07T14:28:52;2.63;;;2.35;;